sensor_id;sensor_type;location;lat;lon;timestamp;pressure;altitude;pressure_sealevel;temperature;humidity
43298;BME280;28892;55.640;37.532;2023-02-16T00:01:56;99583.38;;;-1.62;56.96
43298;BME280;28892;55.640;37.532;2023-02-16T00:04:24;99586.88;;;-1.63;57.02
43298;BME280;28892;55.640;37.532;2023-02-16T00:06:51;99587.38;;;-1.71;57.51
43298;BME280;28892;55.640;37.532;2023-02-16T00:09:18;99590.25;;;-1.75;57.73
43298;BME280;28892;55.640;37.532;2023-02-16T00:11:44;99574.75;;;-1.77;57.48
43298;BME280;28892;55.640;37.532;2023-02-16T00:14:31;99584.50;;;-1.80;57.16
43298;BME280;28892;55.640;37.532;2023-02-16T00:16:58;99586.25;;;-1.81;57.46
43298;BME280;28892;55.640;37.532;2023-02-16T00:19:29;99576.50;;;-1.77;57.45
43298;BME280;28892;55.640;37.532;2023-02-16T00:21:57;99589.50;;;-1.77;57.51
43298;BME280;28892;55.640;37.532;2023-02-16T00:24:24;99585.50;;;-1.83;57.23
43298;BME280;28892;55.640;37.532;2023-02-16T00:26:51;99584.78;;;-1.85;57.38
43298;BME280;28892;55.640;37.532;2023-02-16T00:29:29;99578.38;;;-1.79;57.71
43298;BME280;28892;55.640;37.532;2023-02-16T00:31:57;99580.41;;;-1.85;57.37
43298;BME280;28892;55.640;37.532;2023-02-16T00:34:31;99579.09;;;-1.77;57.37
43298;BME280;28892;55.640;37.532;2023-02-16T00:37:01;99578.56;;;-1.83;57.53
43298;BME280;28892;55.640;37.532;2023-02-16T00:39:27;99579.50;;;-1.84;57.62
43298;BME280;28892;55.640;37.532;2023-02-16T00:41:56;99574.38;;;-1.85;57.65
43298;BME280;28892;55.640;37.532;2023-02-16T00:44:30;99583.38;;;-1.76;58.08
43298;BME280;28892;55.640;37.532;2023-02-16T00:47:11;99576.03;;;-1.70;57.37
43298;BME280;28892;55.640;37.532;2023-02-16T00:49:41;99573.81;;;-1.76;57.49
43298;BME280;28892;55.640;37.532;2023-02-16T00:54:54;99576.59;;;-1.79;57.52
43298;BME280;28892;55.640;37.532;2023-02-16T00:57:20;99569.81;;;-1.81;57.56
43298;BME280;28892;55.640;37.532;2023-02-16T00:59:48;99575.50;;;-1.75;57.52
43298;BME280;28892;55.640;37.532;2023-02-16T01:02:20;99568.34;;;-1.71;57.09
43298;BME280;28892;55.640;37.532;2023-02-16T01:04:47;99570.47;;;-1.78;57.14
43298;BME280;28892;55.640;37.532;2023-02-16T01:07:15;99574.09;;;-1.80;57.42
43298;BME280;28892;55.640;37.532;2023-02-16T01:10:02;99577.44;;;-1.78;57.47
43298;BME280;28892;55.640;37.532;2023-02-16T01:12:46;99571.50;;;-1.80;57.24
43298;BME280;28892;55.640;37.532;2023-02-16T01:15:14;99569.66;;;-1.93;57.92
43298;BME280;28892;55.640;37.532;2023-02-16T01:17:40;99573.00;;;-1.91;57.97
43298;BME280;28892;55.640;37.532;2023-02-16T01:20:16;99578.84;;;-1.87;58.42
43298;BME280;28892;55.640;37.532;2023-02-16T01:22:43;99580.22;;;-1.81;58.05
43298;BME280;28892;55.640;37.532;2023-02-16T01:25:09;99576.03;;;-1.84;57.58
43298;BME280;28892;55.640;37.532;2023-02-16T01:27:36;99583.66;;;-1.81;57.95
43298;BME280;28892;55.640;37.532;2023-02-16T01:30:10;99579.84;;;-1.75;57.95
43298;BME280;28892;55.640;37.532;2023-02-16T01:32:37;99576.97;;;-1.71;57.43
43298;BME280;28892;55.640;37.532;2023-02-16T01:35:05;99581.63;;;-1.76;57.54
43298;BME280;28892;55.640;37.532;2023-02-16T01:37:31;99575.50;;;-1.75;57.90
43298;BME280;28892;55.640;37.532;2023-02-16T01:39:56;99576.88;;;-1.69;57.50
43298;BME280;28892;55.640;37.532;2023-02-16T01:42:45;99586.25;;;-1.66;57.78
43298;BME280;28892;55.640;37.532;2023-02-16T01:45:17;99577.59;;;-1.67;57.10
43298;BME280;28892;55.640;37.532;2023-02-16T01:47:51;99583.56;;;-1.79;57.47
43298;BME280;28892;55.640;37.532;2023-02-16T01:52:57;99582.06;;;-1.98;58.24
43298;BME280;28892;55.640;37.532;2023-02-16T01:55:29;99590.63;;;-1.96;58.06
43298;BME280;28892;55.640;37.532;2023-02-16T01:58:24;99586.72;;;-1.74;58.06
43298;BME280;28892;55.640;37.532;2023-02-16T02:03:30;99585.78;;;-1.88;57.63
43298;BME280;28892;55.640;37.532;2023-02-16T02:06:20;99580.72;;;-1.89;57.66
43298;BME280;28892;55.640;37.532;2023-02-16T02:09:03;99579.66;;;-1.87;57.63
43298;BME280;28892;55.640;37.532;2023-02-16T02:14:13;99583.47;;;-2.07;58.04
43298;BME280;28892;55.640;37.532;2023-02-16T02:16:41;99586.34;;;-2.12;58.35
43298;BME280;28892;55.640;37.532;2023-02-16T02:19:17;99595.06;;;-2.13;58.66
43298;BME280;28892;55.640;37.532;2023-02-16T02:27:30;99586.72;;;-1.89;58.35
43298;BME280;28892;55.640;37.532;2023-02-16T02:43:42;99587.44;;;-1.58;58.04
43298;BME280;28892;55.640;37.532;2023-02-16T02:46:22;99587.00;;;-1.79;58.85
43298;BME280;28892;55.640;37.532;2023-02-16T02:48:50;99600.13;;;-1.95;58.62
43298;BME280;28892;55.640;37.532;2023-02-16T02:51:15;99584.31;;;-1.92;58.68
43298;BME280;28892;55.640;37.532;2023-02-16T02:56:52;99593.41;;;-1.85;58.88
43298;BME280;28892;55.640;37.532;2023-02-16T02:59:42;99592.50;;;-1.84;58.92
43298;BME280;28892;55.640;37.532;2023-02-16T03:02:32;99596.56;;;-1.79;59.21
43298;BME280;28892;55.640;37.532;2023-02-16T03:05:02;99600.56;;;-1.88;59.39
43298;BME280;28892;55.640;37.532;2023-02-16T03:07:30;99594.59;;;-1.90;59.77
43298;BME280;28892;55.640;37.532;2023-02-16T03:10:25;99593.97;;;-1.79;59.96
43298;BME280;28892;55.640;37.532;2023-02-16T03:13:24;99599.81;;;-1.76;59.80
43298;BME280;28892;55.640;37.532;2023-02-16T03:15:53;99592.19;;;-1.93;60.00
43298;BME280;28892;55.640;37.532;2023-02-16T03:18:23;99587.47;;;-2.01;60.16
43298;BME280;28892;55.640;37.532;2023-02-16T03:21:11;99585.69;;;-2.01;60.05
43298;BME280;28892;55.640;37.532;2023-02-16T03:23:57;99585.69;;;-2.01;60.44
43298;BME280;28892;55.640;37.532;2023-02-16T03:26:45;99581.91;;;-1.95;60.38
43298;BME280;28892;55.640;37.532;2023-02-16T03:29:31;99576.31;;;-1.89;60.12
43298;BME280;28892;55.640;37.532;2023-02-16T03:31:57;99579.38;;;-2.26;60.88
43298;BME280;28892;55.640;37.532;2023-02-16T03:34:24;99575.69;;;-2.21;61.37
43298;BME280;28892;55.640;37.532;2023-02-16T03:36:54;99579.47;;;-2.13;61.25
43298;BME280;28892;55.640;37.532;2023-02-16T03:39:27;99576.88;;;-1.98;60.52
43298;BME280;28892;55.640;37.532;2023-02-16T03:41:54;99579.88;;;-2.04;60.61
43298;BME280;28892;55.640;37.532;2023-02-16T03:44:21;99575.56;;;-2.20;60.88
43298;BME280;28892;55.640;37.532;2023-02-16T03:46:47;99582.34;;;-2.32;60.80
43298;BME280;28892;55.640;37.532;2023-02-16T03:49:19;99572.69;;;-2.15;60.96
43298;BME280;28892;55.640;37.532;2023-02-16T03:51:45;99581.63;;;-2.05;61.05
43298;BME280;28892;55.640;37.532;2023-02-16T03:54:11;99575.28;;;-2.15;60.31
43298;BME280;28892;55.640;37.532;2023-02-16T03:56:37;99582.06;;;-2.27;60.58
43298;BME280;28892;55.640;37.532;2023-02-16T03:59:03;99570.28;;;-2.18;60.43
43298;BME280;28892;55.640;37.532;2023-02-16T04:01:28;99573.44;;;-2.28;60.42
43298;BME280;28892;55.640;37.532;2023-02-16T04:03:54;99567.50;;;-2.30;60.60
43298;BME280;28892;55.640;37.532;2023-02-16T04:06:20;99569.63;;;-2.36;60.63
43298;BME280;28892;55.640;37.532;2023-02-16T04:08:45;99569.75;;;-2.54;60.95
43298;BME280;28892;55.640;37.532;2023-02-16T04:11:11;99560.31;;;-2.41;61.13
43298;BME280;28892;55.640;37.532;2023-02-16T04:13:55;99564.09;;;-2.46;61.04
43298;BME280;28892;55.640;37.532;2023-02-16T04:16:21;99571.38;;;-2.37;61.33
43298;BME280;28892;55.640;37.532;2023-02-16T04:18:47;99564.34;;;-2.20;60.53
43298;BME280;28892;55.640;37.532;2023-02-16T04:21:12;99564.44;;;-2.22;60.53
43298;BME280;28892;55.640;37.532;2023-02-16T04:23:38;99560.72;;;-2.18;60.61
43298;BME280;28892;55.640;37.532;2023-02-16T04:26:04;99561.91;;;-2.23;60.42
43298;BME280;28892;55.640;37.532;2023-02-16T04:28:29;99570.09;;;-2.15;60.71
43298;BME280;28892;55.640;37.532;2023-02-16T04:30:55;99561.47;;;-2.16;60.48
43298;BME280;28892;55.640;37.532;2023-02-16T04:33:21;99559.50;;;-2.12;60.51
43298;BME280;28892;55.640;37.532;2023-02-16T04:35:46;99569.47;;;-2.04;59.92
43298;BME280;28892;55.640;37.532;2023-02-16T04:38:12;99572.22;;;-2.22;60.10
43298;BME280;28892;55.640;37.532;2023-02-16T04:40:38;99569.63;;;-2.36;60.74
43298;BME280;28892;55.640;37.532;2023-02-16T04:43:04;99569.16;;;-2.29;60.50
43298;BME280;28892;55.640;37.532;2023-02-16T04:45:29;99568.16;;;-2.26;60.45
43298;BME280;28892;55.640;37.532;2023-02-16T04:47:55;99559.88;;;-2.18;60.15
43298;BME280;28892;55.640;37.532;2023-02-16T04:50:21;99552.91;;;-2.32;59.96
43298;BME280;28892;55.640;37.532;2023-02-16T04:52:46;99545.56;;;-2.40;60.41
43298;BME280;28892;55.640;37.532;2023-02-16T04:55:12;99558.09;;;-2.32;60.46
43298;BME280;28892;55.640;37.532;2023-02-16T04:57:39;99554.97;;;-2.23;60.76
43298;BME280;28892;55.640;37.532;2023-02-16T05:00:06;99556.34;;;-2.17;60.58
43298;BME280;28892;55.640;37.532;2023-02-16T05:02:32;99558.75;;;-2.14;60.33
43298;BME280;28892;55.640;37.532;2023-02-16T05:04:58;99558.59;;;-2.11;60.01
43298;BME280;28892;55.640;37.532;2023-02-16T05:07:26;99557.19;;;-2.17;60.16
43298;BME280;28892;55.640;37.532;2023-02-16T05:09:51;99563.41;;;-2.05;59.89
43298;BME280;28892;55.640;37.532;2023-02-16T05:12:17;99570.75;;;-2.12;59.56
43298;BME280;28892;55.640;37.532;2023-02-16T05:15:02;99562.28;;;-2.30;60.02
43298;BME280;28892;55.640;37.532;2023-02-16T05:17:32;99560.16;;;-2.37;60.07
43298;BME280;28892;55.640;37.532;2023-02-16T05:19:59;99560.91;;;-2.35;59.63
43298;BME280;28892;55.640;37.532;2023-02-16T05:22:26;99568.41;;;-2.31;59.47
43298;BME280;28892;55.640;37.532;2023-02-16T05:25:02;99565.63;;;-2.13;59.10
43298;BME280;28892;55.640;37.532;2023-02-16T05:27:33;99569.25;;;-2.30;59.34
43298;BME280;28892;55.640;37.532;2023-02-16T05:29:58;99562.56;;;-2.49;59.79
43298;BME280;28892;55.640;37.532;2023-02-16T05:32:24;99573.16;;;-2.37;59.63
43298;BME280;28892;55.640;37.532;2023-02-16T05:34:50;99575.34;;;-2.46;59.71
43298;BME280;28892;55.640;37.532;2023-02-16T05:37:17;99569.63;;;-2.36;59.75
43298;BME280;28892;55.640;37.532;2023-02-16T05:39:43;99553.38;;;-2.40;59.72
43298;BME280;28892;55.640;37.532;2023-02-16T05:42:10;99565.91;;;-2.32;59.23
43298;BME280;28892;55.640;37.532;2023-02-16T05:44:36;99559.38;;;-2.40;59.27
43298;BME280;28892;55.640;37.532;2023-02-16T05:47:02;99570.91;;;-2.44;59.52
43298;BME280;28892;55.640;37.532;2023-02-16T05:49:28;99569.50;;;-2.49;59.79
43298;BME280;28892;55.640;37.532;2023-02-16T05:51:54;99569.50;;;-2.49;59.88
43298;BME280;28892;55.640;37.532;2023-02-16T05:54:19;99571.63;;;-2.42;59.99
43298;BME280;28892;55.640;37.532;2023-02-16T05:56:47;99563.56;;;-2.22;59.92
43298;BME280;28892;55.640;37.532;2023-02-16T05:59:13;99563.56;;;-2.22;58.92
43298;BME280;28892;55.640;37.532;2023-02-16T06:01:40;99561.63;;;-2.19;59.12
43298;BME280;28892;55.640;37.532;2023-02-16T06:04:10;99573.81;;;-2.19;59.39
43298;BME280;28892;55.640;37.532;2023-02-16T06:06:37;99556.78;;;-2.40;59.38
43298;BME280;28892;55.640;37.532;2023-02-16T06:09:04;99562.44;;;-2.47;59.63
43298;BME280;28892;55.640;37.532;2023-02-16T06:11:43;99569.44;;;-2.33;59.59
43298;BME280;28892;55.640;37.532;2023-02-16T06:14:12;99569.81;;;-2.25;59.12
43298;BME280;28892;55.640;37.532;2023-02-16T06:16:40;99566.63;;;-2.30;59.08
43298;BME280;28892;55.640;37.532;2023-02-16T06:19:06;99566.84;;;-2.19;58.95
43298;BME280;28892;55.640;37.532;2023-02-16T06:21:34;99559.22;;;-2.22;58.68
43298;BME280;28892;55.640;37.532;2023-02-16T06:23:59;99568.78;;;-2.22;58.85
43298;BME280;28892;55.640;37.532;2023-02-16T06:26:25;99554.97;;;-2.08;58.08
43298;BME280;28892;55.640;37.532;2023-02-16T06:28:52;99562.75;;;-2.08;58.03
43298;BME280;28892;55.640;37.532;2023-02-16T06:31:18;99566.19;;;-1.93;57.44
43298;BME280;28892;55.640;37.532;2023-02-16T06:33:43;99557.28;;;-1.75;57.48
43298;BME280;28892;55.640;37.532;2023-02-16T06:36:10;99559.44;;;-1.81;57.19
43298;BME280;28892;55.640;37.532;2023-02-16T06:38:35;99562.59;;;-1.91;57.21
43298;BME280;28892;55.640;37.532;2023-02-16T06:41:01;99559.59;;;-1.99;58.10
43298;BME280;28892;55.640;37.532;2023-02-16T06:43:27;99549.47;;;-2.04;58.09
43298;BME280;28892;55.640;37.532;2023-02-16T06:45:53;99565.09;;;-2.04;58.31
43298;BME280;28892;55.640;37.532;2023-02-16T06:48:19;99557.84;;;-2.13;58.45
43298;BME280;28892;55.640;37.532;2023-02-16T06:50:44;99563.22;;;-2.02;58.25
43298;BME280;28892;55.640;37.532;2023-02-16T06:53:10;99563.13;;;-2.00;58.17
43298;BME280;28892;55.640;37.532;2023-02-16T06:55:36;99555.34;;;-2.00;58.46
43298;BME280;28892;55.640;37.532;2023-02-16T06:58:03;99553.59;;;-2.00;58.11
43298;BME280;28892;55.640;37.532;2023-02-16T07:00:29;99557.47;;;-2.07;58.09
43298;BME280;28892;55.640;37.532;2023-02-16T07:02:55;99564.91;;;-2.15;58.25
43298;BME280;28892;55.640;37.532;2023-02-16T07:05:21;99557.56;;;-2.23;58.50
43298;BME280;28892;55.640;37.532;2023-02-16T07:07:46;99551.72;;;-2.27;58.97
43298;BME280;28892;55.640;37.532;2023-02-16T07:10:12;99562.75;;;-2.08;58.89
43298;BME280;28892;55.640;37.532;2023-02-16T07:12:42;99549.47;;;-2.04;58.80
43298;BME280;28892;55.640;37.532;2023-02-16T07:15:08;99544.94;;;-2.00;58.19
43298;BME280;28892;55.640;37.532;2023-02-16T07:17:34;99552.25;;;-1.92;58.24
43298;BME280;28892;55.640;37.532;2023-02-16T07:20:00;99557.31;;;-1.89;57.87
43298;BME280;28892;55.640;37.532;2023-02-16T07:22:25;99554.78;;;-1.91;57.71
43298;BME280;28892;55.640;37.532;2023-02-16T07:24:51;99553.56;;;-2.14;58.02
43298;BME280;28892;55.640;37.532;2023-02-16T07:27:17;99553.50;;;-2.27;58.38
43298;BME280;28892;55.640;37.532;2023-02-16T07:29:43;99549.97;;;-2.26;58.70
43298;BME280;28892;55.640;37.532;2023-02-16T07:32:11;99553.69;;;-2.16;58.41
43298;BME280;28892;55.640;37.532;2023-02-16T07:34:39;99548.56;;;-2.17;58.79
43298;BME280;28892;55.640;37.532;2023-02-16T07:37:22;99538.34;;;-2.06;58.12
43298;BME280;28892;55.640;37.532;2023-02-16T07:39:52;99553.84;;;-2.19;58.41
43298;BME280;28892;55.640;37.532;2023-02-16T07:42:19;99536.97;;;-2.12;57.90
43298;BME280;28892;55.640;37.532;2023-02-16T07:44:46;99556.72;;;-1.94;58.03
43298;BME280;28892;55.640;37.532;2023-02-16T07:47:17;99541.78;;;-1.91;57.74
43298;BME280;28892;55.640;37.532;2023-02-16T07:49:42;99544.97;;;-1.44;56.62
43298;BME280;28892;55.640;37.532;2023-02-16T07:52:08;99549.53;;;-1.47;56.21
43298;BME280;28892;55.640;37.532;2023-02-16T07:54:34;99543.03;;;-1.55;56.75
43298;BME280;28892;55.640;37.532;2023-02-16T07:57:03;99539.56;;;-1.41;56.26
43298;BME280;28892;55.640;37.532;2023-02-16T07:59:51;99526.09;;;-1.47;56.79
43298;BME280;28892;55.640;37.532;2023-02-16T08:03:00;99536.84;;;-1.66;56.79
43298;BME280;28892;55.640;37.532;2023-02-16T08:05:27;99556.25;;;-1.72;57.45
43298;BME280;28892;55.640;37.532;2023-02-16T08:07:54;99540.47;;;-1.69;57.14
43298;BME280;28892;55.640;37.532;2023-02-16T08:10:22;99550.94;;;-1.71;57.41
43298;BME280;28892;55.640;37.532;2023-02-16T08:12:56;99539.56;;;-1.83;57.51
43298;BME280;28892;55.640;37.532;2023-02-16T08:15:30;99534.69;;;-1.74;57.73
43298;BME280;28892;55.640;37.532;2023-02-16T08:18:03;99545.84;;;-1.72;57.50
43298;BME280;28892;55.640;37.532;2023-02-16T08:20:32;99533.13;;;-1.77;57.86
43298;BME280;28892;55.640;37.532;2023-02-16T08:22:58;99555.22;;;-1.70;57.45
43298;BME280;28892;55.640;37.532;2023-02-16T08:25:26;99536.56;;;-1.34;56.24
43298;BME280;28892;55.640;37.532;2023-02-16T08:27:58;99532.31;;;-1.35;56.00
43298;BME280;28892;55.640;37.532;2023-02-16T08:30:29;99536.44;;;-1.46;56.29
43298;BME280;28892;55.640;37.532;2023-02-16T08:32:57;99546.63;;;-1.43;56.75
43298;BME280;28892;55.640;37.532;2023-02-16T08:35:29;99526.34;;;-1.10;55.61
43298;BME280;28892;55.640;37.532;2023-02-16T08:38:00;99527.19;;;-1.09;55.15
43298;BME280;28892;55.640;37.532;2023-02-16T08:40:30;99534.69;;;-1.05;55.45
43298;BME280;28892;55.640;37.532;2023-02-16T08:42:55;99541.72;;;-1.20;55.41
43298;BME280;28892;55.640;37.532;2023-02-16T08:45:21;99530.22;;;-1.30;56.13
43298;BME280;28892;55.640;37.532;2023-02-16T08:47:57;99525.47;;;-1.23;56.89
43298;BME280;28892;55.640;37.532;2023-02-16T08:50:25;99521.88;;;-1.08;55.91
43298;BME280;28892;55.640;37.532;2023-02-16T08:52:51;99536.66;;;-1.08;55.55
43298;BME280;28892;55.640;37.532;2023-02-16T08:55:17;99533.41;;;-1.12;55.95
43298;BME280;28892;55.640;37.532;2023-02-16T08:57:43;99541.22;;;-1.12;56.05
43298;BME280;28892;55.640;37.532;2023-02-16T09:00:09;99526.53;;;-1.13;56.04
43298;BME280;28892;55.640;37.532;2023-02-16T09:02:57;99532.75;;;-1.01;55.85
43298;BME280;28892;55.640;37.532;2023-02-16T09:05:23;99529.44;;;-0.77;55.62
43298;BME280;28892;55.640;37.532;2023-02-16T09:07:49;99521.53;;;-0.76;54.09
43298;BME280;28892;55.640;37.532;2023-02-16T09:10:16;99528.84;;;-1.08;54.94
43298;BME280;28892;55.640;37.532;2023-02-16T09:12:41;99531.53;;;-1.10;55.16
43298;BME280;28892;55.640;37.532;2023-02-16T09:15:08;99521.22;;;-0.84;55.02
43298;BME280;28892;55.640;37.532;2023-02-16T09:17:34;99519.03;;;-0.77;54.00
43298;BME280;28892;55.640;37.532;2023-02-16T09:20:03;99522.84;;;-0.96;54.62
43298;BME280;28892;55.640;37.532;2023-02-16T09:22:29;99523.13;;;-1.14;55.08
43298;BME280;28892;55.640;37.532;2023-02-16T09:24:55;99513.63;;;-1.15;56.87
43298;BME280;28892;55.640;37.532;2023-02-16T09:27:21;99516.47;;;-1.05;55.94
43298;BME280;28892;55.640;37.532;2023-02-16T09:29:54;99502.56;;;-0.78;55.11
43298;BME280;28892;55.640;37.532;2023-02-16T09:32:27;99507.59;;;-0.75;55.15
43298;BME280;28892;55.640;37.532;2023-02-16T09:34:53;99513.19;;;-0.81;54.18
43298;BME280;28892;55.640;37.532;2023-02-16T09:37:19;99512.41;;;-0.43;53.50
43298;BME280;28892;55.640;37.532;2023-02-16T09:39:45;99510.59;;;-0.68;53.93
43298;BME280;28892;55.640;37.532;2023-02-16T09:43:13;99509.88;;;-0.18;55.02
43298;BME280;28892;55.640;37.532;2023-02-16T09:45:25;99506.56;;;0.54;52.90
43298;BME280;28892;55.640;37.532;2023-02-16T09:47:52;99506.28;;;0.46;52.76
43298;BME280;28892;55.640;37.532;2023-02-16T09:50:28;99508.75;;;0.61;53.43
43298;BME280;28892;55.640;37.532;2023-02-16T09:52:57;99507.97;;;0.72;53.00
43298;BME280;28892;55.640;37.532;2023-02-16T09:55:42;99504.34;;;1.91;52.86
43298;BME280;28892;55.640;37.532;2023-02-16T09:58:21;99504.00;;;1.85;50.57
43298;BME280;28892;55.640;37.532;2023-02-16T10:00:56;99502.06;;;1.87;50.01
43298;BME280;28892;55.640;37.532;2023-02-16T10:06:47;99510.97;;;1.73;49.89
43298;BME280;28892;55.640;37.532;2023-02-16T10:09:27;99501.09;;;1.42;49.90
43298;BME280;28892;55.640;37.532;2023-02-16T10:15:01;99500.13;;;1.32;49.98
43298;BME280;28892;55.640;37.532;2023-02-16T10:17:40;99482.59;;;1.09;48.58
43298;BME280;28892;55.640;37.532;2023-02-16T10:20:16;99500.16;;;1.07;48.54
43298;BME280;28892;55.640;37.532;2023-02-16T10:22:59;99498.53;;;0.82;48.90
43298;BME280;28892;55.640;37.532;2023-02-16T10:29:05;99495.81;;;0.59;48.87
43298;BME280;28892;55.640;37.532;2023-02-16T10:31:38;99472.28;;;0.35;49.05
43298;BME280;28892;55.640;37.532;2023-02-16T10:34:26;99488.56;;;0.38;49.20
43298;BME280;28892;55.640;37.532;2023-02-16T10:37:34;99494.91;;;0.23;49.70
43298;BME280;28892;55.640;37.532;2023-02-16T10:42:45;99490.47;;;0.36;48.27
43298;BME280;28892;55.640;37.532;2023-02-16T10:47:46;99484.94;;;-0.09;48.53
43298;BME280;28892;55.640;37.532;2023-02-16T10:50:44;99488.50;;;-0.23;48.82
43298;BME280;28892;55.640;37.532;2023-02-16T10:53:32;99484.00;;;-0.08;49.17
43298;BME280;28892;55.640;37.532;2023-02-16T10:55:59;99475.56;;;-0.12;49.21
43298;BME280;28892;55.640;37.532;2023-02-16T10:58:45;99487.25;;;-0.44;49.85
43298;BME280;28892;55.640;37.532;2023-02-16T11:01:15;99479.34;;;-0.68;50.17
43298;BME280;28892;55.640;37.532;2023-02-16T11:03:46;99480.56;;;-0.61;49.65
43298;BME280;28892;55.640;37.532;2023-02-16T11:08:48;99474.75;;;-0.51;49.93
43298;BME280;28892;55.640;37.532;2023-02-16T11:11:15;99492.59;;;-0.45;49.58
43298;BME280;28892;55.640;37.532;2023-02-16T11:13:46;99477.25;;;-0.76;49.23
43298;BME280;28892;55.640;37.532;2023-02-16T11:16:18;99482.97;;;-0.96;50.60
43298;BME280;28892;55.640;37.532;2023-02-16T11:18:48;99479.28;;;-0.94;50.72
43298;BME280;28892;55.640;37.532;2023-02-16T11:21:20;99482.31;;;-1.00;51.38
43298;BME280;28892;55.640;37.532;2023-02-16T11:24:13;99479.09;;;-0.78;51.15
43298;BME280;28892;55.640;37.532;2023-02-16T11:27:04;99471.22;;;-0.63;51.34
43298;BME280;28892;55.640;37.532;2023-02-16T11:29:33;99477.78;;;-0.58;50.55
43298;BME280;28892;55.640;37.532;2023-02-16T11:32:06;99471.09;;;-0.62;50.58
43298;BME280;28892;55.640;37.532;2023-02-16T11:34:49;99463.59;;;-0.66;51.74
43298;BME280;28892;55.640;37.532;2023-02-16T11:40:25;99467.78;;;-0.51;51.17
43298;BME280;28892;55.640;37.532;2023-02-16T11:42:53;99464.84;;;-0.46;50.82
43298;BME280;28892;55.640;37.532;2023-02-16T11:47:54;99474.88;;;0.10;49.09
43298;BME280;28892;55.640;37.532;2023-02-16T11:50:36;99468.78;;;-0.28;49.57
43298;BME280;28892;55.640;37.532;2023-02-16T11:55:40;99465.81;;;-0.47;47.86
43298;BME280;28892;55.640;37.532;2023-02-16T11:58:20;99470.59;;;-0.54;48.20
43298;BME280;28892;55.640;37.532;2023-02-16T12:01:22;99472.16;;;-0.38;48.18
43298;BME280;28892;55.640;37.532;2023-02-16T12:12:30;99462.88;;;-0.55;46.72
43298;BME280;28892;55.640;37.532;2023-02-16T12:40:05;99468.06;;;-0.81;49.82
43298;BME280;28892;55.640;37.532;2023-02-16T12:45:42;99467.25;;;-0.82;49.66
43298;BME280;28892;55.640;37.532;2023-02-16T12:52:02;99478.09;;;-0.62;49.65
43298;BME280;28892;55.640;37.532;2023-02-16T12:55:17;99475.56;;;-0.77;49.77
43298;BME280;28892;55.640;37.532;2023-02-16T12:57:53;99472.00;;;-1.02;49.94
43298;BME280;28892;55.640;37.532;2023-02-16T13:00:45;99474.00;;;-0.92;50.17
43298;BME280;28892;55.640;37.532;2023-02-16T13:12:49;99481.84;;;-1.20;51.35
43298;BME280;28892;55.640;37.532;2023-02-16T13:45:28;99469.88;;;-1.50;49.20
43298;BME280;28892;55.640;37.532;2023-02-16T13:47:58;99464.47;;;-1.47;49.74
43298;BME280;28892;55.640;37.532;2023-02-16T13:50:31;99468.63;;;-1.30;49.79
43298;BME280;28892;55.640;37.532;2023-02-16T13:53:09;99469.22;;;-1.26;49.42
43298;BME280;28892;55.640;37.532;2023-02-16T13:55:38;99467.78;;;-1.30;49.10
43298;BME280;28892;55.640;37.532;2023-02-16T14:00:45;99470.44;;;-1.45;50.26
43298;BME280;28892;55.640;37.532;2023-02-16T14:05:54;99472.03;;;-1.57;49.92
43298;BME280;28892;55.640;37.532;2023-02-16T14:08:25;99471.03;;;-1.54;50.02
43298;BME280;28892;55.640;37.532;2023-02-16T14:11:01;99478.91;;;-1.56;49.89
43298;BME280;28892;55.640;37.532;2023-02-16T14:13:32;99474.28;;;-1.65;50.30
43298;BME280;28892;55.640;37.532;2023-02-16T14:16:09;99477.34;;;-1.31;49.61
43298;BME280;28892;55.640;37.532;2023-02-16T14:21:44;99482.16;;;-1.52;49.46
43298;BME280;28892;55.640;37.532;2023-02-16T14:24:29;99481.28;;;-1.38;50.08
43298;BME280;28892;55.640;37.532;2023-02-16T14:27:03;99475.63;;;-1.17;49.22
43298;BME280;28892;55.640;37.532;2023-02-16T14:29:52;99492.13;;;-1.31;49.18
43298;BME280;28892;55.640;37.532;2023-02-16T14:32:24;99475.44;;;-1.01;48.63
43298;BME280;28892;55.640;37.532;2023-02-16T14:38:04;99479.78;;;-1.15;48.68
43298;BME280;28892;55.640;37.532;2023-02-16T14:40:54;99476.44;;;-1.57;48.96
43298;BME280;28892;55.640;37.532;2023-02-16T14:58:29;99485.69;;;-1.53;50.69
43298;BME280;28892;55.640;37.532;2023-02-16T15:01:11;99477.81;;;-1.51;50.86
43298;BME280;28892;55.640;37.532;2023-02-16T15:03:45;99470.59;;;-1.61;50.75
43298;BME280;28892;55.640;37.532;2023-02-16T15:08:55;99470.00;;;-1.93;51.38
43298;BME280;28892;55.640;37.532;2023-02-16T15:11:48;99487.09;;;-1.89;51.79
43298;BME280;28892;55.640;37.532;2023-02-16T15:14:44;99474.72;;;-1.86;51.92
43298;BME280;28892;55.640;37.532;2023-02-16T15:17:52;99468.53;;;-1.98;52.61
43298;BME280;28892;55.640;37.532;2023-02-16T15:24:18;99477.88;;;-1.80;52.61
43298;BME280;28892;55.640;37.532;2023-02-16T15:26:55;99477.00;;;-1.66;51.80
43298;BME280;28892;55.640;37.532;2023-02-16T15:29:34;99472.06;;;-2.13;52.38
43298;BME280;28892;55.640;37.532;2023-02-16T15:32:06;99483.75;;;-2.06;52.68
43298;BME280;28892;55.640;37.532;2023-02-16T15:34:39;99467.41;;;-1.93;51.78
43298;BME280;28892;55.640;37.532;2023-02-16T15:37:23;99469.50;;;-1.71;51.42
43298;BME280;28892;55.640;37.532;2023-02-16T15:39:53;99481.22;;;-1.78;51.55
43298;BME280;28892;55.640;37.532;2023-02-16T15:42:26;99478.84;;;-2.11;51.94
43298;BME280;28892;55.640;37.532;2023-02-16T15:44:53;99485.22;;;-2.02;51.38
43298;BME280;28892;55.640;37.532;2023-02-16T15:47:24;99467.91;;;-2.30;51.76
43298;BME280;28892;55.640;37.532;2023-02-16T15:49:52;99483.19;;;-1.97;51.57
43298;BME280;28892;55.640;37.532;2023-02-16T15:52:35;99483.44;;;-1.72;50.35
43298;BME280;28892;55.640;37.532;2023-02-16T15:55:22;99469.66;;;-2.16;50.51
43298;BME280;28892;55.640;37.532;2023-02-16T15:58:05;99478.09;;;-1.98;50.71
43298;BME280;28892;55.640;37.532;2023-02-16T16:00:33;99473.63;;;-1.96;50.15
43298;BME280;28892;55.640;37.532;2023-02-16T16:03:00;99487.44;;;-1.81;49.92
43298;BME280;28892;55.640;37.532;2023-02-16T16:05:31;99470.41;;;-2.00;49.83
43298;BME280;28892;55.640;37.532;2023-02-16T16:08:01;99484.41;;;-2.17;49.84